EST,Max TemperatureF,Mean TemperatureF,Min TemperatureF,Max Dew PointF,MeanDew PointF,Min DewpointF,Max Humidity, Mean Humidity, Min Humidity, Max Sea Level PressureIn, Mean Sea Level PressureIn, Min Sea Level PressureIn, Max VisibilityMiles, Mean VisibilityMiles, Min VisibilityMiles, Max Wind SpeedMPH, Mean Wind SpeedMPH, Max Gust SpeedMPH,PrecipitationIn, CloudCover, Events, WindDirDegrees
2011-1-1,44,38,33,40,35,31,100,97,85,30.10,30.02,29.90,7,2,0,7,0,,0.07,7,Fog-Rain,70
2011-1-2,42,35,28,39,35,20,100,95,72,29.96,29.88,29.81,10,3,0,8,1,,0.06,8,Fog-Rain,325
2011-1-3,28,24,21,18,12,8,80,64,49,30.00,29.94,29.83,10,9,2,16,8,30,0.00,7,Snow,307
2011-1-4,28,20,12,18,15,9,93,79,51,29.96,29.79,29.63,10,8,2,10,4,20,0.00,6,Snow,312
2011-1-5,26,21,16,19,15,9,93,76,59,29.70,29.63,29.59,10,5,1,12,4,21,0.00,8,Snow,300
2011-1-6,19,8,-4,9,2,-8,87,75,57,29.69,29.65,29.57,10,9,3,8,1,,0.00,4,,273
2011-1-7,23,8,-6,7,-3,-11,88,75,46,29.67,29.60,29.53,10,10,6,8,0,,0.00,2,,97
2011-1-8,23,8,-6,13,3,-11,92,81,65,29.57,29.50,29.43,10,9,2,0,0,,0.00,6,Snow,-1
2011-1-9,24,20,15,20,15,9,93,77,73,29.87,29.62,29.39,10,3,1,17,7,33,0.00,8,Snow,290
2011-1-10,19,14,10,11,9,6,92,75,68,30.24,30.06,29.82,10,4,2,10,7,21,0.00,8,Snow,290
2011-1-11,23,12,1,10,5,-2,92,79,55,30.30,30.20,30.04,10,9,4,4,0,,0.00,3,Snow,330
2011-1-12,27,16,6,23,17,2,92,82,71,30.01,29.64,29.47,10,4,0,16,6,22,0.56,8,Fog-Snow,351
2011-1-13,25,18,10,19,13,6,86,77,71,30.23,29.94,29.63,10,5,2,15,8,29,0.00,8,Snow,318
2011-1-14,16,12,7,8,7,3,87,77,68,30.28,30.25,30.22,10,8,3,5,1,,0.00,8,Snow,290
2011-1-15,19,2,-14,13,5,-19,88,80,52,30.23,29.90,29.67,10,5,1,9,1,,0.00,6,Snow,127
2011-1-16,19,10,0,16,8,-5,92,76,60,30.16,29.85,29.66,10,7,2,12,3,20,0.00,7,Snow,306
2011-1-17,10,-4,-17,-4,-12,-23,83,72,47,30.41,30.33,30.17,10,10,9,6,1,,0.00,0,,35
2011-1-18,30,8,-15,27,16,-20,100,85,75,30.35,29.93,29.64,10,3,0,14,3,20,0.24,8,Fog-Snow,330
2011-1-19,30,24,19,28,23,15,100,86,74,29.83,29.66,29.56,10,4,1,10,3,,0.08,8,Snow,336
2011-1-20,21,14,7,14,9,4,92,76,58,29.96,29.90,29.82,10,9,5,8,3,,0.00,6,Snow,311
2011-1-21,21,15,9,16,8,1,92,79,63,29.81,29.52,29.34,10,4,0,12,3,23,0.07,8,Fog-Snow,314
2011-1-22,14,4,-6,1,-3,-10,87,68,49,29.91,29.79,29.58,10,8,1,12,5,21,0.00,3,Snow,300
2011-1-23,8,-2,-11,-2,-11,-21,85,71,50,30.22,29.93,29.77,10,6,2,12,2,21,0.00,5,Snow,303
2011-1-24,0,-9,-18,-17,-22,-27,78,61,42,30.42,30.33,30.13,10,8,3,10,5,23,0.00,2,,290
2011-1-25,15,2,-11,10,-3,-17,84,76,67,30.34,30.10,29.99,9,4,1,0,0,,0.00,8,Snow,-1
2011-1-26,28,16,3,19,14,-1,88,79,63,30.13,29.99,29.70,10,8,4,9,1,,0.00,7,Snow,150
2011-1-27,26,18,10,19,13,7,92,76,55,29.78,29.68,29.57,10,9,5,14,5,23,0.00,7,,337
2011-1-28,28,18,8,16,12,6,92,78,49,29.85,29.80,29.72,10,7,3,4,0,,0.00,7,Snow,280
2011-1-29,30,22,10,22,17,8,93,86,64,29.97,29.85,29.77,10,4,1,6,0,,0.02,8,Snow,324
2011-1-30,23,13,3,16,9,0,93,79,63,30.17,30.00,29.90,10,6,2,7,1,,0.00,8,Snow,287
2011-1-31,12,0,-11,4,-8,-16,82,64,37,30.53,30.40,30.11,10,10,8,12,5,21,0.00,1,,287